createdAt,value
2017-11-29T00:00:40.855Z,4.42
2017-11-29T00:03:11.251Z,4.39
2017-11-29T00:05:38.945Z,4.40
2017-11-29T00:08:08.459Z,4.39
2017-11-29T00:10:36.154Z,4.37
2017-11-29T00:13:04.662Z,4.38
2017-11-29T00:15:32.334Z,4.39
2017-11-29T00:18:00.947Z,4.39
2017-11-29T00:20:28.576Z,4.39
2017-11-29T00:22:58.024Z,4.37
2017-11-29T00:25:25.913Z,4.37
2017-11-29T00:27:55.300Z,4.34
2017-11-29T00:30:26.698Z,4.33
2017-11-29T00:32:54.422Z,4.30
2017-11-29T00:35:22.863Z,4.28
2017-11-29T00:37:50.528Z,4.26
2017-11-29T00:40:20.020Z,4.25
2017-11-29T00:42:48.510Z,4.23
2017-11-29T00:45:16.214Z,4.22
2017-11-29T00:47:45.540Z,4.19
2017-11-29T00:50:13.484Z,4.17
2017-11-29T00:52:42.807Z,4.16
2017-11-29T00:55:10.540Z,4.14
2017-11-29T00:57:38.412Z,4.15
2017-11-29T01:00:06.446Z,4.14
2017-11-29T01:02:34.096Z,4.13
2017-11-29T01:05:01.846Z,4.12
2017-11-29T01:07:31.344Z,4.10
2017-11-29T01:09:59.012Z,4.09
2017-11-29T01:12:26.852Z,4.08
2017-11-29T01:14:54.602Z,4.07
2017-11-29T01:17:24.033Z,4.06
2017-11-29T01:19:53.342Z,4.06
2017-11-29T01:22:21.048Z,4.05
2017-11-29T01:24:48.678Z,4.04
2017-11-29T01:27:16.422Z,4.02
2017-11-29T01:29:44.807Z,4.03
2017-11-29T01:32:13.271Z,4.03
2017-11-29T01:34:40.941Z,4.02
2017-11-29T01:37:10.412Z,4.02
2017-11-29T01:39:40.775Z,4.02
2017-11-29T01:42:08.597Z,3.99
2017-11-29T01:44:36.325Z,3.98
2017-11-29T01:47:03.987Z,3.98
2017-11-29T01:49:33.410Z,3.97
2017-11-29T01:52:02.722Z,3.96
2017-11-29T01:54:30.430Z,3.97
2017-11-29T01:57:00.813Z,3.98
2017-11-29T01:59:28.569Z,3.99
2017-11-29T02:01:56.398Z,3.97
2017-11-29T02:04:24.054Z,3.96
2017-11-29T02:06:53.609Z,3.94
2017-11-29T02:09:21.426Z,3.92
2017-11-29T02:11:50.859Z,3.90
2017-11-29T02:14:18.598Z,3.92
2017-11-29T02:16:47.857Z,3.94
2017-11-29T02:19:16.009Z,3.93
2017-11-29T02:21:45.259Z,3.92
2017-11-29T02:24:13.710Z,3.92
2017-11-29T02:26:42.698Z,3.90
2017-11-29T02:29:12.154Z,3.90
2017-11-29T02:31:39.853Z,3.87
2017-11-29T02:34:07.461Z,3.82
2017-11-29T02:36:35.937Z,3.84
2017-11-29T02:39:03.741Z,3.83
2017-11-29T02:41:45.039Z,3.82
2017-11-29T02:44:13.461Z,3.80
2017-11-29T02:46:41.129Z,3.77
2017-11-29T02:49:08.802Z,3.76
2017-11-29T02:51:36.983Z,3.73
2017-11-29T02:54:04.630Z,3.74
2017-11-29T02:56:34.095Z,3.72
2017-11-29T02:59:02.517Z,3.71
2017-11-29T03:01:31.807Z,3.71
2017-11-29T03:04:01.286Z,3.70
2017-11-29T03:06:29.721Z,3.70
2017-11-29T03:08:59.169Z,3.69
2017-11-29T03:11:26.963Z,3.67
2017-11-29T03:13:55.608Z,3.67
2017-11-29T03:16:24.163Z,3.66
2017-11-29T03:18:51.908Z,3.67
2017-11-29T03:21:20.011Z,3.67
2017-11-29T03:23:49.379Z,3.67
2017-11-29T03:26:21.255Z,3.67
2017-11-29T03:28:48.981Z,3.66
2017-11-29T03:31:16.650Z,3.65
2017-11-29T03:33:46.129Z,3.63
2017-11-29T03:36:13.813Z,3.63
2017-11-29T03:38:41.537Z,3.63
2017-11-29T03:41:09.219Z,3.62
2017-11-29T03:43:39.048Z,3.61
2017-11-29T03:46:07.435Z,3.58
2017-11-29T03:48:35.174Z,3.55
2017-11-29T03:51:02.934Z,3.56
2017-11-29T03:53:31.630Z,3.56
2017-11-29T03:56:01.079Z,3.58
2017-11-29T03:58:30.037Z,3.58
2017-11-29T04:01:00.357Z,3.56
2017-11-29T04:03:28.047Z,3.55
2017-11-29T04:05:57.341Z,3.54
2017-11-29T04:08:25.030Z,3.55
2017-11-29T04:10:52.687Z,3.56
2017-11-29T04:13:20.472Z,3.56
2017-11-29T04:15:51.491Z,3.56
2017-11-29T04:18:19.948Z,3.57
2017-11-29T04:20:47.700Z,3.59
2017-11-29T04:23:18.001Z,3.61
2017-11-29T04:25:45.663Z,3.64
2017-11-29T04:28:15.971Z,3.66
2017-11-29T04:30:47.971Z,3.70
2017-11-29T04:33:16.491Z,3.71
2017-11-29T04:35:45.013Z,3.70
2017-11-29T04:38:12.701Z,3.71
2017-11-29T04:40:40.426Z,3.68
2017-11-29T04:43:08.835Z,3.67
2017-11-29T04:45:36.519Z,3.69
2017-11-29T04:48:06.027Z,3.70
2017-11-29T04:50:35.380Z,3.73
2017-11-29T04:53:04.852Z,3.72
2017-11-29T04:55:32.605Z,3.69
2017-11-29T04:58:01.117Z,3.67
2017-11-29T05:00:29.191Z,3.68
2017-11-29T05:02:58.675Z,3.70
2017-11-29T05:05:29.066Z,3.69
2017-11-29T05:07:58.461Z,3.69
2017-11-29T05:10:28.009Z,3.70
2017-11-29T05:12:57.069Z,3.71
2017-11-29T05:15:31.721Z,3.73
2017-11-29T05:18:01.611Z,3.74
2017-11-29T05:20:30.149Z,3.75
2017-11-29T05:22:59.558Z,3.77
2017-11-29T05:25:30.217Z,3.76
2017-11-29T05:27:57.956Z,3.75
2017-11-29T05:30:28.351Z,3.73
2017-11-29T05:32:56.069Z,3.74
2017-11-29T05:35:24.469Z,3.75
2017-11-29T05:37:52.113Z,3.73
2017-11-29T05:40:19.725Z,3.71
2017-11-29T05:42:49.154Z,3.71
2017-11-29T05:45:17.978Z,3.70
2017-11-29T05:47:45.635Z,3.72
2017-11-29T05:50:15.067Z,3.70
2017-11-29T05:52:46.022Z,3.68
2017-11-29T05:55:13.695Z,3.64
2017-11-29T05:57:43.080Z,3.63
2017-11-29T06:00:13.414Z,3.65
2017-11-29T06:02:42.886Z,3.67
2017-11-29T06:05:10.649Z,3.67
2017-11-29T06:07:40.041Z,3.67
2017-11-29T06:10:11.577Z,3.66
2017-11-29T06:12:40.932Z,3.63
2017-11-29T06:15:08.677Z,3.61
2017-11-29T06:17:36.302Z,3.61
2017-11-29T06:20:05.960Z,3.60
2017-11-29T06:22:36.625Z,3.64
2017-11-29T06:25:05.156Z,3.64
2017-11-29T06:27:34.708Z,3.63
2017-11-29T06:30:03.488Z,3.63
2017-11-29T06:32:32.774Z,3.62
2017-11-29T06:35:00.600Z,3.59
2017-11-29T06:37:28.269Z,3.58
2017-11-29T06:39:56.718Z,3.57
2017-11-29T06:42:24.688Z,3.59
2017-11-29T06:44:52.476Z,3.61
2017-11-29T06:47:22.804Z,3.62
2017-11-29T06:49:51.205Z,3.62
2017-11-29T06:52:20.598Z,3.62
2017-11-29T06:54:49.156Z,3.61
2017-11-29T06:57:17.115Z,3.60
2017-11-29T06:59:47.076Z,3.57
2017-11-29T07:02:15.521Z,3.55
2017-11-29T07:04:43.243Z,3.57
2017-11-29T07:07:11.656Z,3.59
2017-11-29T07:09:40.054Z,3.61
2017-11-29T07:12:09.414Z,3.63
2017-11-29T07:14:38.851Z,3.64
2017-11-29T07:17:06.741Z,3.66
2017-11-29T07:19:35.259Z,3.68
2017-11-29T07:22:03.025Z,3.64
2017-11-29T07:24:30.839Z,3.63
2017-11-29T07:26:59.224Z,3.68
2017-11-29T07:29:28.736Z,3.69
2017-11-29T07:31:59.124Z,3.72
2017-11-29T07:34:26.821Z,3.75
2017-11-29T07:36:56.436Z,3.76
2017-11-29T07:39:25.816Z,3.78
2017-11-29T07:41:54.346Z,3.80
2017-11-29T07:44:22.003Z,3.81
2017-11-29T07:46:49.706Z,3.77
2017-11-29T07:49:19.114Z,3.77
2017-11-29T07:51:48.366Z,3.80
2017-11-29T07:54:18.835Z,3.83
2017-11-29T07:56:48.454Z,3.86
2017-11-29T07:59:16.176Z,3.89
2017-11-29T08:01:44.660Z,3.91
2017-11-29T08:04:15.033Z,3.93
2017-11-29T08:06:42.713Z,3.96
2017-11-29T08:09:13.019Z,3.97
2017-11-29T08:11:42.567Z,3.99
2017-11-29T08:14:11.012Z,3.99
2017-11-29T08:16:39.682Z,4.00
2017-11-29T08:19:09.290Z,4.05
2017-11-29T08:21:38.642Z,4.09
2017-11-29T08:24:06.381Z,4.13
2017-11-29T08:26:34.043Z,4.14
2017-11-29T08:29:04.376Z,4.17
2017-11-29T08:31:33.663Z,4.21
2017-11-29T08:34:01.365Z,4.23
2017-11-29T08:36:31.656Z,4.27
2017-11-29T08:38:59.439Z,4.31
2017-11-29T08:41:28.081Z,4.37
2017-11-29T08:43:55.783Z,4.40
2017-11-29T08:46:25.066Z,4.44
2017-11-29T08:48:56.301Z,4.46
2017-11-29T08:51:23.984Z,4.51
2017-11-29T08:53:51.695Z,4.56
2017-11-29T08:56:21.044Z,4.63
2017-11-29T08:58:48.762Z,4.68
2017-11-29T09:01:16.392Z,4.68
2017-11-29T09:03:44.867Z,4.66
2017-11-29T09:06:14.237Z,4.64
2017-11-29T09:08:43.752Z,4.66
2017-11-29T09:11:13.051Z,4.67
2017-11-29T09:13:40.849Z,4.72
2017-11-29T09:16:09.237Z,4.77
2017-11-29T09:18:38.645Z,4.79
2017-11-29T09:21:07.953Z,4.84
2017-11-29T09:23:37.553Z,4.88
2017-11-29T09:26:05.367Z,4.85
2017-11-29T09:28:34.824Z,4.92
2017-11-29T09:31:02.530Z,4.94
2017-11-29T09:33:31.893Z,4.98
2017-11-29T09:36:01.287Z,4.95
2017-11-29T09:38:30.557Z,5.01
2017-11-29T09:40:59.102Z,5.13
2017-11-29T09:43:26.844Z,5.24
2017-11-29T09:45:56.324Z,5.34
2017-11-29T09:48:26.690Z,5.47
2017-11-29T09:50:55.158Z,5.58
2017-11-29T09:53:23.559Z,5.75
2017-11-29T09:55:51.255Z,5.79
2017-11-29T09:58:19.700Z,5.86
2017-11-29T10:00:48.109Z,5.90
2017-11-29T10:03:15.963Z,5.82
2017-11-29T10:05:45.196Z,5.76
2017-11-29T10:08:14.514Z,5.74
2017-11-29T10:10:42.277Z,5.65
2017-11-29T10:13:10.824Z,5.59
2017-11-29T10:15:41.162Z,5.59
2017-11-29T10:18:08.873Z,5.61
2017-11-29T10:20:40.913Z,5.61
2017-11-29T10:23:09.588Z,5.62
2017-11-29T10:25:38.261Z,5.68
2017-11-29T10:28:05.979Z,5.77
2017-11-29T10:30:36.324Z,5.80
2017-11-29T10:33:04.034Z,5.85
2017-11-29T10:35:34.539Z,5.86
2017-11-29T10:38:02.364Z,5.89
2017-11-29T10:40:29.990Z,5.91
2017-11-29T10:42:57.645Z,5.96
2017-11-29T10:45:26.981Z,5.98
2017-11-29T10:47:57.205Z,5.98
2017-11-29T10:50:24.964Z,5.98
2017-11-29T10:52:52.692Z,6.00
2017-11-29T10:55:21.111Z,6.01
2017-11-29T10:57:50.512Z,5.99
2017-11-29T11:00:24.975Z,6.02
2017-11-29T11:02:52.635Z,6.00
2017-11-29T11:05:22.140Z,5.99
2017-11-29T11:07:49.936Z,5.99
2017-11-29T11:10:20.248Z,6.01
2017-11-29T11:12:47.953Z,5.98
2017-11-29T11:15:17.440Z,5.93
2017-11-29T11:17:45.368Z,5.93
2017-11-29T11:20:13.843Z,5.94
2017-11-29T11:22:41.528Z,5.93
2017-11-29T11:25:09.987Z,5.94
2017-11-29T11:27:39.632Z,5.99
2017-11-29T11:30:07.304Z,5.95
2017-11-29T11:32:35.131Z,5.98
2017-11-29T11:35:04.739Z,5.96
2017-11-29T11:37:33.454Z,5.96
2017-11-29T11:40:02.967Z,5.98
2017-11-29T11:42:31.657Z,6.01
2017-11-29T11:45:01.085Z,6.01
2017-11-29T11:47:28.730Z,6.03
2017-11-29T11:49:57.196Z,6.06
2017-11-29T11:52:24.924Z,6.03
2017-11-29T11:54:55.202Z,6.03
2017-11-29T11:57:25.493Z,5.94
2017-11-29T11:59:54.046Z,5.99
2017-11-29T12:02:24.293Z,6.01
2017-11-29T12:04:53.776Z,6.00
2017-11-29T12:07:23.096Z,6.01
2017-11-29T12:09:50.842Z,6.06
2017-11-29T12:12:20.255Z,5.98
2017-11-29T12:14:48.783Z,5.95
2017-11-29T12:17:19.103Z,5.98
2017-11-29T12:19:46.861Z,6.00
2017-11-29T12:22:16.134Z,5.99
2017-11-29T12:24:45.528Z,5.98
2017-11-29T12:27:15.092Z,5.91
2017-11-29T12:29:43.597Z,5.91
2017-11-29T12:32:11.291Z,5.89
2017-11-29T12:34:40.743Z,5.85
2017-11-29T12:37:10.156Z,5.88
2017-11-29T12:39:37.865Z,5.95
2017-11-29T12:42:06.308Z,5.95
2017-11-29T12:44:34.273Z,5.96
2017-11-29T12:47:02.782Z,5.99
2017-11-29T12:49:42.202Z,6.01
2017-11-29T12:52:11.659Z,6.05
2017-11-29T12:54:41.163Z,6.10
2017-11-29T12:57:09.915Z,6.09
2017-11-29T12:59:39.339Z,6.11
2017-11-29T13:02:07.998Z,6.05
2017-11-29T13:04:35.705Z,6.05
2017-11-29T13:07:05.004Z,6.05
2017-11-29T13:09:32.730Z,6.03
2017-11-29T13:12:01.203Z,5.99
2017-11-29T13:14:30.653Z,6.03
2017-11-29T13:16:59.227Z,6.07
2017-11-29T13:19:28.608Z,6.11
2017-11-29T13:21:57.100Z,6.15
2017-11-29T13:24:24.764Z,6.17
2017-11-29T13:26:52.432Z,6.15
2017-11-29T13:29:20.114Z,6.14
2017-11-29T13:31:50.543Z,6.10
2017-11-29T13:34:20.087Z,6.06
2017-11-29T13:36:47.911Z,6.04
2017-11-29T13:39:17.308Z,6.00
2017-11-29T13:41:45.798Z,5.97
2017-11-29T13:44:13.518Z,5.93
2017-11-29T13:46:41.182Z,5.88
2017-11-29T13:49:11.468Z,5.84
2017-11-29T13:51:41.446Z,5.78
2017-11-29T13:54:09.219Z,5.76
2017-11-29T13:56:37.673Z,5.74
2017-11-29T13:59:05.463Z,5.71
2017-11-29T14:01:33.189Z,5.72
2017-11-29T14:04:00.846Z,5.72
2017-11-29T14:06:29.239Z,5.73
2017-11-29T14:08:59.541Z,5.74
2017-11-29T14:11:27.218Z,5.74
2017-11-29T14:13:55.052Z,5.72
2017-11-29T14:16:24.565Z,5.68
2017-11-29T14:18:52.272Z,5.67
2017-11-29T14:21:21.581Z,5.68
2017-11-29T14:23:51.127Z,5.67
2017-11-29T14:26:19.895Z,5.65
2017-11-29T14:28:51.941Z,5.64
2017-11-29T14:31:19.603Z,5.62
2017-11-29T14:33:48.977Z,5.58
2017-11-29T14:36:17.525Z,5.55
2017-11-29T14:38:46.059Z,5.55
2017-11-29T14:41:13.930Z,5.53
2017-11-29T14:43:41.634Z,5.51
2017-11-29T14:46:11.165Z,5.50
2017-11-29T14:48:38.976Z,5.50
2017-11-29T14:51:08.577Z,5.50
2017-11-29T14:53:38.190Z,5.49
2017-11-29T14:56:11.048Z,5.48
2017-11-29T14:58:41.684Z,5.46
2017-11-29T15:01:15.256Z,5.46
2017-11-29T15:03:47.051Z,5.46
2017-11-29T15:06:18.119Z,5.43
2017-11-29T15:08:46.190Z,5.41
2017-11-29T15:11:15.588Z,5.39
2017-11-29T15:13:43.332Z,5.35
2017-11-29T15:16:12.047Z,5.34
2017-11-29T15:18:41.677Z,5.33
2017-11-29T15:21:10.170Z,5.32
2017-11-29T15:23:37.865Z,5.31
2017-11-29T15:26:07.277Z,5.30
2017-11-29T15:28:35.141Z,5.26
2017-11-29T15:31:03.587Z,5.23
2017-11-29T15:33:33.018Z,5.21
2017-11-29T15:36:01.775Z,5.20
2017-11-29T15:38:29.477Z,5.19
2017-11-29T15:40:58.908Z,5.15
2017-11-29T15:43:29.889Z,5.12
2017-11-29T15:45:57.863Z,5.13
2017-11-29T15:48:26.448Z,5.12
2017-11-29T15:50:54.162Z,5.11
2017-11-29T15:53:24.793Z,5.09
2017-11-29T15:55:55.195Z,5.06
2017-11-29T15:58:24.803Z,5.03
2017-11-29T16:00:54.412Z,4.99
2017-11-29T16:03:26.324Z,4.98
2017-11-29T16:05:55.782Z,4.98
2017-11-29T16:08:24.252Z,4.95
2017-11-29T16:10:53.715Z,4.93
2017-11-29T16:13:23.610Z,4.92
2017-11-29T16:15:51.337Z,4.92
2017-11-29T16:18:20.228Z,4.91
2017-11-29T16:20:47.913Z,4.90
2017-11-29T16:23:17.347Z,4.88
2017-11-29T16:25:46.753Z,4.86
2017-11-29T16:28:14.490Z,4.85
2017-11-29T16:30:42.206Z,4.82
2017-11-29T16:33:09.890Z,4.81
2017-11-29T16:35:37.705Z,4.78
2017-11-29T16:38:08.145Z,4.75
2017-11-29T16:40:37.673Z,4.73
2017-11-29T16:43:05.456Z,4.71
2017-11-29T16:45:35.971Z,4.72
2017-11-29T16:48:03.741Z,4.72
2017-11-29T16:50:33.189Z,4.71
2017-11-29T16:53:01.079Z,4.70
2017-11-29T16:55:30.026Z,4.67
2017-11-29T16:57:59.171Z,4.70
2017-11-29T17:00:27.778Z,4.67
2017-11-29T17:02:56.877Z,4.62
2017-11-29T17:05:24.566Z,4.62
2017-11-29T17:07:53.951Z,4.61
2017-11-29T17:10:21.702Z,4.59
2017-11-29T17:12:51.129Z,4.57
2017-11-29T17:15:19.624Z,4.57
2017-11-29T17:17:47.359Z,4.56
2017-11-29T17:20:15.073Z,4.53
2017-11-29T17:22:44.457Z,4.49
2017-11-29T17:25:14.837Z,4.47
2017-11-29T17:27:42.757Z,4.43
2017-11-29T17:30:13.091Z,4.39
2017-11-29T17:32:40.800Z,4.36
2017-11-29T17:35:10.540Z,4.34
2017-11-29T17:37:39.895Z,4.31
2017-11-29T17:40:07.685Z,4.27
2017-11-29T17:42:36.402Z,4.27
2017-11-29T17:45:04.290Z,4.28
2017-11-29T17:47:34.607Z,4.29
2017-11-29T17:50:03.109Z,4.31
2017-11-29T17:52:31.581Z,4.32
2017-11-29T17:55:00.965Z,4.30
2017-11-29T17:57:30.358Z,4.31
2017-11-29T17:59:58.866Z,4.34
2017-11-29T18:02:28.455Z,4.33
2017-11-29T18:04:56.256Z,4.30
2017-11-29T18:07:25.589Z,4.25
2017-11-29T18:09:55.251Z,4.22
2017-11-29T18:12:24.876Z,4.21
2017-11-29T18:14:53.354Z,4.16
2017-11-29T18:17:21.146Z,4.17
2017-11-29T18:19:53.353Z,4.17
2017-11-29T18:22:21.104Z,4.15
2017-11-29T18:24:49.636Z,4.14
2017-11-29T18:27:19.306Z,4.13
2017-11-29T18:29:47.801Z,4.11
2017-11-29T18:32:15.527Z,4.09
2017-11-29T18:34:44.104Z,4.07
2017-11-29T18:37:13.794Z,4.04
2017-11-29T18:39:41.664Z,4.05
2017-11-29T18:42:09.408Z,4.04
2017-11-29T18:44:37.236Z,4.02
2017-11-29T18:47:06.901Z,4.01
2017-11-29T18:49:36.807Z,3.98
2017-11-29T18:52:08.042Z,3.96
2017-11-29T18:54:35.955Z,3.92
2017-11-29T18:57:04.412Z,3.91
2017-11-29T18:59:32.129Z,3.88
2017-11-29T19:02:00.024Z,3.84
2017-11-29T19:04:28.683Z,3.83
2017-11-29T19:06:56.557Z,3.85
2017-11-29T19:09:24.260Z,3.85
2017-11-29T19:11:52.096Z,3.87
2017-11-29T19:14:20.834Z,3.87
2017-11-29T19:16:50.694Z,3.80
2017-11-29T19:19:18.671Z,3.81
2017-11-29T19:21:49.138Z,3.82
2017-11-29T19:24:17.213Z,3.82
2017-11-29T19:26:44.938Z,3.84
2017-11-29T19:29:12.795Z,3.85
2017-11-29T19:31:42.425Z,3.84
2017-11-29T19:34:10.507Z,3.82
2017-11-29T19:36:40.085Z,3.82
2017-11-29T19:39:07.959Z,3.83
2017-11-29T19:41:38.329Z,3.83
2017-11-29T19:44:06.210Z,3.82
2017-11-29T19:46:36.538Z,3.83
2017-11-29T19:49:04.449Z,3.83
2017-11-29T19:51:34.831Z,3.79
2017-11-29T19:54:02.795Z,3.81
2017-11-29T19:56:30.670Z,3.80
2017-11-29T19:58:59.465Z,3.81
2017-11-29T20:01:27.535Z,3.82
2017-11-29T20:03:55.290Z,3.82
2017-11-29T20:06:24.669Z,3.82
2017-11-29T20:08:55.057Z,3.81
2017-11-29T20:11:24.599Z,3.82
2017-11-29T20:13:52.421Z,3.80
2017-11-29T20:16:22.926Z,3.79
2017-11-29T20:18:50.812Z,3.77
2017-11-29T20:21:18.906Z,3.77
2017-11-29T20:23:48.395Z,3.75
2017-11-29T20:26:19.219Z,3.75
2017-11-29T20:28:47.101Z,3.73
2017-11-29T20:31:15.286Z,3.74
2017-11-29T20:33:43.142Z,3.76
2017-11-29T20:36:10.924Z,3.73
2017-11-29T20:38:43.580Z,3.75
2017-11-29T20:41:13.213Z,3.75
2017-11-29T20:43:41.504Z,3.73
2017-11-29T20:46:10.199Z,3.71
2017-11-29T20:48:38.840Z,3.69
2017-11-29T21:04:12.316Z,3.66
2017-11-29T21:06:40.025Z,3.65
2017-11-29T21:09:07.891Z,3.63
2017-11-29T21:11:37.412Z,3.63
2017-11-29T21:14:07.041Z,3.61
2017-11-29T21:16:34.907Z,3.60
2017-11-29T21:19:03.438Z,3.59
2017-11-29T21:21:31.284Z,3.59
2017-11-29T21:24:01.879Z,3.58
2017-11-29T21:26:31.218Z,3.57
2017-11-29T21:29:00.651Z,3.52
2017-11-29T21:31:30.438Z,3.48
2017-11-29T21:33:58.374Z,3.47
2017-11-29T21:36:28.026Z,3.45
2017-11-29T21:38:56.854Z,3.45
2017-11-29T21:41:24.541Z,3.44
2017-11-29T21:43:52.305Z,3.43
2017-11-29T21:46:19.981Z,3.41
2017-11-29T21:48:48.528Z,3.39
2017-11-29T21:51:17.007Z,3.36
2017-11-29T21:53:46.527Z,3.33
2017-11-29T21:56:14.374Z,3.28
2017-11-29T21:58:43.730Z,3.26
2017-11-29T22:01:11.770Z,3.23
2017-11-29T22:03:39.456Z,3.23
2017-11-29T22:06:07.155Z,3.21
2017-11-29T22:08:34.951Z,3.21
2017-11-29T22:11:03.386Z,3.21
2017-11-29T22:13:32.672Z,3.21
2017-11-29T22:16:00.432Z,3.21
2017-11-29T22:18:29.042Z,3.22
2017-11-29T22:20:56.738Z,3.22
2017-11-29T22:23:24.524Z,3.23
2017-11-29T22:25:52.409Z,3.25
2017-11-29T22:28:20.147Z,3.27
2017-11-29T22:30:50.454Z,3.29
2017-11-29T22:33:20.007Z,3.32
2017-11-29T22:35:47.863Z,3.34
2017-11-29T22:38:17.317Z,3.34
2017-11-29T22:40:45.093Z,3.36
2017-11-29T22:43:15.015Z,3.38
2017-11-29T22:45:43.479Z,3.39
2017-11-29T22:48:11.240Z,3.38
2017-11-29T22:50:38.921Z,3.38
2017-11-29T22:53:06.603Z,3.38
2017-11-29T22:55:34.353Z,3.39
2017-11-29T22:58:02.833Z,3.39
2017-11-29T23:00:32.517Z,3.37
2017-11-29T23:03:00.770Z,3.34
2017-11-29T23:05:29.283Z,3.35
2017-11-29T23:07:57.035Z,3.35
2017-11-29T23:10:26.491Z,3.34
2017-11-29T23:12:55.985Z,3.34
2017-11-29T23:15:23.629Z,3.30
2017-11-29T23:17:51.383Z,3.30
2017-11-29T23:20:19.055Z,3.29
2017-11-29T23:22:48.470Z,3.22
2017-11-29T23:25:16.305Z,3.21
2017-11-29T23:27:43.973Z,3.18
2017-11-29T23:30:12.597Z,3.20
2017-11-29T23:32:40.427Z,3.18
2017-11-29T23:48:09.232Z,3.18
2017-11-29T23:50:37.033Z,3.13
2017-11-29T23:53:07.329Z,3.08
2017-11-29T23:55:35.066Z,3.07
2017-11-29T23:58:02.696Z,3.06
